createdAt,value
2022-11-02T00:00:15.063Z,10.76
2022-11-02T00:03:36.592Z,10.78
2022-11-02T00:06:58.295Z,10.78
2022-11-02T00:10:15.095Z,10.78
2022-11-02T00:13:16.935Z,10.78
2022-11-02T00:16:19.990Z,10.80
2022-11-02T00:19:21.771Z,10.81
2022-11-02T00:22:24.066Z,10.82
2022-11-02T00:25:26.835Z,10.83
2022-11-02T00:28:29.198Z,10.85
2022-11-02T00:31:33.897Z,10.87
2022-11-02T00:34:35.555Z,10.87
2022-11-02T00:37:37.670Z,10.87
2022-11-02T00:40:39.504Z,10.89
2022-11-02T00:43:41.229Z,10.88
2022-11-02T00:46:42.881Z,10.88
2022-11-02T00:49:44.573Z,10.87
2022-11-02T00:52:46.364Z,10.86
2022-11-02T00:55:48.084Z,10.85
2022-11-02T00:58:49.879Z,10.84
2022-11-02T01:01:51.831Z,10.84
2022-11-02T01:04:56.683Z,10.83
2022-11-02T01:07:58.546Z,10.83
2022-11-02T01:11:19.318Z,10.83
2022-11-02T01:14:21.711Z,10.82
2022-11-02T01:17:23.464Z,10.82
2022-11-02T01:20:25.512Z,10.80
2022-11-02T01:23:27.436Z,10.78
2022-11-02T01:26:29.215Z,10.75
2022-11-02T01:29:30.898Z,10.73
2022-11-02T01:32:32.722Z,10.70
2022-11-02T01:35:37.002Z,10.68
2022-11-02T01:38:38.725Z,10.68
2022-11-02T01:41:41.323Z,10.66
2022-11-02T01:44:44.199Z,10.64
2022-11-02T01:47:48.553Z,10.64
2022-11-02T01:50:50.211Z,10.63
2022-11-02T01:53:53.055Z,10.63
2022-11-02T01:57:01.702Z,10.61
2022-11-02T02:00:12.197Z,10.60
2022-11-02T02:03:18.986Z,10.59
2022-11-02T02:06:20.846Z,10.60
2022-11-02T02:09:23.493Z,10.60
2022-11-02T02:12:25.822Z,10.62
2022-11-02T02:15:39.400Z,10.64
2022-11-02T02:18:47.740Z,10.64
2022-11-02T02:22:05.494Z,10.61
2022-11-02T02:25:31.703Z,10.62
2022-11-02T02:28:57.049Z,10.62
2022-11-02T02:32:36.417Z,10.61
2022-11-02T02:35:49.271Z,10.60
2022-11-02T02:39:13.413Z,10.58
2022-11-02T02:42:21.779Z,10.56
2022-11-02T02:45:23.380Z,10.52
2022-11-02T02:48:25.776Z,10.53
2022-11-02T02:51:32.544Z,10.50
2022-11-02T02:54:42.648Z,10.47
2022-11-02T02:57:45.842Z,10.45
2022-11-02T03:00:47.962Z,10.44
2022-11-02T03:03:49.701Z,10.46
2022-11-02T03:06:58.138Z,10.46
2022-11-02T03:10:10.731Z,10.45
2022-11-02T03:13:21.108Z,10.43
2022-11-02T03:16:35.386Z,10.42
2022-11-02T03:19:42.627Z,10.41
2022-11-02T03:22:58.259Z,10.41
2022-11-02T03:26:11.305Z,10.40
2022-11-02T03:29:16.633Z,10.40
2022-11-02T03:32:39.100Z,10.38
2022-11-02T03:35:47.461Z,10.35
2022-11-02T03:38:53.657Z,10.30
2022-11-02T03:41:56.910Z,10.26
2022-11-02T03:45:07.860Z,10.18
2022-11-02T03:48:12.187Z,10.10
2022-11-02T03:51:16.150Z,10.03
2022-11-02T03:54:43.678Z,9.98
2022-11-02T03:57:47.870Z,9.90
2022-11-02T04:00:58.853Z,9.79
2022-11-02T04:04:00.569Z,9.71
2022-11-02T04:07:05.338Z,9.66
2022-11-02T04:10:07.397Z,9.62
2022-11-02T04:13:27.953Z,9.60
2022-11-02T04:16:29.634Z,9.53
2022-11-02T04:19:31.270Z,9.46
2022-11-02T04:22:51.830Z,9.39
2022-11-02T04:25:56.340Z,9.36
2022-11-02T04:28:58.084Z,9.33
2022-11-02T04:31:59.906Z,9.31
2022-11-02T04:35:02.197Z,9.27
2022-11-02T04:38:22.904Z,9.28
2022-11-02T04:41:43.567Z,9.27
2022-11-02T04:44:45.198Z,9.21
2022-11-02T04:47:46.799Z,9.18
2022-11-02T04:50:48.493Z,9.21
2022-11-02T04:53:50.655Z,9.23
2022-11-02T04:56:52.485Z,9.26
2022-11-02T04:59:54.140Z,9.29
2022-11-02T05:02:55.975Z,9.33
2022-11-02T05:05:57.675Z,9.39
2022-11-02T05:08:59.321Z,9.43
2022-11-02T05:12:02.025Z,9.46
2022-11-02T05:15:04.975Z,9.49
2022-11-02T05:18:07.111Z,9.52
2022-11-02T05:21:11.040Z,9.55
2022-11-02T05:24:12.686Z,9.58
2022-11-02T05:27:15.470Z,9.62
2022-11-02T05:30:17.179Z,9.64
2022-11-02T05:33:19.012Z,9.67
2022-11-02T05:36:20.735Z,9.70
2022-11-02T05:39:22.425Z,9.72
2022-11-02T05:42:26.012Z,9.74
2022-11-02T05:45:27.791Z,9.77
2022-11-02T05:48:32.430Z,9.78
2022-11-02T05:51:34.146Z,9.78
2022-11-02T05:54:36.058Z,9.81
2022-11-02T05:57:37.804Z,9.82
2022-11-02T06:00:40.523Z,9.83
2022-11-02T06:03:42.338Z,9.84
2022-11-02T06:06:44.163Z,9.86
2022-11-02T06:09:45.877Z,9.89
2022-11-02T06:12:47.575Z,9.87
2022-11-02T06:15:49.358Z,9.76
2022-11-02T06:18:51.964Z,9.69
2022-11-02T06:21:53.704Z,9.70
2022-11-02T06:24:55.348Z,9.72
2022-11-02T06:27:57.531Z,9.75
2022-11-02T06:30:59.244Z,9.80
2022-11-02T06:34:00.929Z,9.84
2022-11-02T06:37:02.735Z,9.86
2022-11-02T06:40:04.850Z,9.90
2022-11-02T06:43:22.993Z,9.96
2022-11-02T06:46:25.643Z,10.00
2022-11-02T06:49:27.313Z,10.03
2022-11-02T06:52:29.547Z,10.06
2022-11-02T06:55:31.552Z,10.07
2022-11-02T06:58:33.289Z,10.11
2022-11-02T07:01:35.420Z,10.17
2022-11-02T07:04:37.403Z,10.23
2022-11-02T07:07:39.395Z,10.32
2022-11-02T07:10:41.116Z,10.41
2022-11-02T07:13:43.434Z,10.49
2022-11-02T07:16:45.314Z,10.74
2022-11-02T07:19:47.035Z,10.92
2022-11-02T07:22:56.939Z,10.96
2022-11-02T07:26:01.621Z,10.97
2022-11-02T07:29:03.633Z,11.10
2022-11-02T07:32:07.738Z,11.30
2022-11-02T07:35:11.477Z,11.34
2022-11-02T07:38:13.596Z,11.57
2022-11-02T07:41:15.393Z,11.68
2022-11-02T07:44:17.073Z,11.72
2022-11-02T07:47:18.888Z,11.78
2022-11-02T07:50:23.225Z,12.08
2022-11-02T07:53:24.871Z,12.32
2022-11-02T07:56:26.625Z,12.70
2022-11-02T07:59:28.961Z,13.09
2022-11-02T08:02:30.767Z,13.16
2022-11-02T08:05:35.069Z,13.24
2022-11-02T08:08:37.152Z,13.29
2022-11-02T08:11:39.202Z,13.43
2022-11-02T08:14:40.950Z,13.45
2022-11-02T08:17:42.880Z,13.42
2022-11-02T08:20:46.364Z,13.78
2022-11-02T08:23:48.087Z,14.29
2022-11-02T08:26:53.904Z,14.65
2022-11-02T08:29:57.305Z,14.98
2022-11-02T08:33:13.308Z,15.30
2022-11-02T08:36:15.191Z,15.57
2022-11-02T08:39:19.069Z,15.78
2022-11-02T08:42:21.091Z,15.92
2022-11-02T08:45:22.793Z,16.07
2022-11-02T08:48:24.823Z,16.39
2022-11-02T08:51:26.410Z,16.49
2022-11-02T08:54:28.727Z,16.40
2022-11-02T08:57:30.425Z,16.73
2022-11-02T09:00:33.962Z,16.93
2022-11-02T09:03:35.837Z,17.17
2022-11-02T09:06:37.540Z,17.54
2022-11-02T09:09:39.309Z,17.88
2022-11-02T09:12:40.953Z,17.93
2022-11-02T09:15:59.558Z,17.94
2022-11-02T09:19:05.288Z,18.06
2022-11-02T09:22:07.213Z,18.22
2022-11-02T09:25:09.689Z,18.35
2022-11-02T09:28:13.290Z,18.42
2022-11-02T09:31:15.054Z,18.60
2022-11-02T09:34:17.028Z,18.70
2022-11-02T09:37:18.972Z,18.74
2022-11-02T09:40:23.351Z,18.98
2022-11-02T09:43:38.242Z,19.40
2022-11-02T09:46:43.562Z,19.53
2022-11-02T09:49:45.583Z,19.78
2022-11-02T09:52:52.284Z,19.87
2022-11-02T09:55:57.537Z,19.67
2022-11-02T09:59:23.358Z,19.65
2022-11-02T10:02:47.074Z,20.10
2022-11-02T10:06:04.565Z,20.31
2022-11-02T10:09:37.941Z,20.15
2022-11-02T10:12:55.489Z,20.07
2022-11-02T10:16:02.391Z,20.17
2022-11-02T10:19:10.131Z,20.21
2022-11-02T10:22:14.015Z,20.37
2022-11-02T10:25:16.612Z,20.41
2022-11-02T10:28:26.327Z,20.35
2022-11-02T10:31:33.401Z,20.51
2022-11-02T10:34:35.333Z,20.53
2022-11-02T10:38:16.604Z,20.52
2022-11-02T10:41:21.423Z,20.57
2022-11-02T10:44:59.175Z,20.17
2022-11-02T10:48:11.495Z,20.16
2022-11-02T10:51:14.822Z,20.16
2022-11-02T10:54:20.576Z,20.04
2022-11-02T10:57:28.158Z,20.32
2022-11-02T11:00:35.467Z,20.40
2022-11-02T11:04:01.482Z,20.83
2022-11-02T11:07:21.080Z,20.82
2022-11-02T11:10:23.759Z,20.53
2022-11-02T11:16:56.508Z,20.35
2022-11-02T11:20:02.741Z,20.33
2022-11-02T11:23:21.462Z,20.24
2022-11-02T11:26:28.463Z,19.90
2022-11-02T11:29:32.786Z,19.32
2022-11-02T11:32:35.569Z,18.70
2022-11-02T11:35:38.857Z,18.21
2022-11-02T11:38:47.135Z,17.84
2022-11-02T11:41:48.966Z,17.58
2022-11-02T11:45:03.067Z,17.34
2022-11-02T11:48:23.026Z,17.17
2022-11-02T11:51:34.246Z,17.06
2022-11-02T11:54:36.675Z,17.03
2022-11-02T12:00:45.167Z,16.79
2022-11-02T12:04:01.355Z,16.80
2022-11-02T12:07:09.455Z,17.10
2022-11-02T12:10:21.897Z,17.22
2022-11-02T12:13:45.558Z,17.30
2022-11-02T12:17:12.501Z,17.28
2022-11-02T12:20:38.498Z,17.31
2022-11-02T12:23:52.895Z,17.32
2022-11-02T12:27:15.808Z,17.34
2022-11-02T12:30:22.056Z,17.31
2022-11-02T12:33:35.353Z,17.23
2022-11-02T12:40:24.082Z,17.01
2022-11-02T12:43:39.428Z,17.01
2022-11-02T12:46:57.165Z,17.12
2022-11-02T12:50:01.892Z,17.07
2022-11-02T12:53:19.130Z,17.02
2022-11-02T12:56:26.539Z,16.79
2022-11-02T12:59:31.498Z,16.54
2022-11-02T13:02:45.269Z,16.47
2022-11-02T13:05:54.664Z,16.47
2022-11-02T13:09:09.253Z,16.53
2022-11-02T13:12:15.250Z,16.57
2022-11-02T13:15:20.153Z,16.62
2022-11-02T13:18:24.865Z,16.64
2022-11-02T13:21:44.165Z,16.62
2022-11-02T13:24:50.314Z,16.64
2022-11-02T13:27:54.892Z,16.76
2022-11-02T13:30:57.144Z,16.63
2022-11-02T13:34:02.414Z,16.61
2022-11-02T13:37:17.472Z,16.62
2022-11-02T13:40:26.490Z,16.61
2022-11-02T13:43:43.217Z,16.57
2022-11-02T13:46:59.895Z,16.50
2022-11-02T13:50:03.565Z,16.46
2022-11-02T13:53:08.933Z,16.37
2022-11-02T13:56:12.911Z,16.31
2022-11-02T13:59:24.237Z,16.30
2022-11-02T14:02:29.185Z,16.24
2022-11-02T14:05:33.212Z,16.12
2022-11-02T14:08:38.257Z,16.04
2022-11-02T14:11:40.258Z,16.05
2022-11-02T14:14:41.927Z,15.96
2022-11-02T14:17:56.509Z,15.87
2022-11-02T14:20:58.719Z,15.78
2022-11-02T14:24:00.733Z,15.71
2022-11-02T14:27:13.012Z,15.62
2022-11-02T14:30:33.671Z,15.52
2022-11-02T14:33:38.328Z,15.41
2022-11-02T14:37:01.143Z,15.30
2022-11-02T14:40:26.737Z,15.18
2022-11-02T14:43:50.007Z,15.07
2022-11-02T14:47:07.986Z,14.88
2022-11-02T14:50:12.635Z,14.69
2022-11-02T14:53:25.393Z,14.60
2022-11-02T14:57:06.620Z,14.55
2022-11-02T15:00:17.898Z,14.35
2022-11-02T15:03:25.754Z,14.19
2022-11-02T15:06:28.489Z,13.97
2022-11-02T15:09:59.269Z,13.75
2022-11-02T15:13:19.459Z,13.56
2022-11-02T15:16:22.563Z,13.39
2022-11-02T15:19:47.368Z,13.26
2022-11-02T15:22:52.830Z,13.14
2022-11-02T15:25:55.097Z,13.05
2022-11-02T15:28:59.131Z,12.99
2022-11-02T15:32:01.681Z,12.95
2022-11-02T15:35:04.146Z,12.95
2022-11-02T15:38:30.354Z,12.99
2022-11-02T15:41:45.012Z,12.91
2022-11-02T15:45:05.411Z,12.80
2022-11-02T15:48:22.260Z,12.71
2022-11-02T15:51:47.162Z,12.66
2022-11-02T15:55:10.597Z,12.61
2022-11-02T15:58:21.841Z,12.55
2022-11-02T16:01:25.593Z,12.48
2022-11-02T16:04:27.982Z,12.39
2022-11-02T16:07:43.585Z,12.34
2022-11-02T16:11:04.344Z,12.28
2022-11-02T16:14:17.331Z,12.24
2022-11-02T16:17:27.106Z,12.19
2022-11-02T16:20:31.936Z,12.14
2022-11-02T16:23:36.739Z,12.07
2022-11-02T16:26:38.550Z,12.01
2022-11-02T16:29:41.125Z,11.98
2022-11-02T16:32:43.123Z,11.98
2022-11-02T16:35:44.850Z,11.97
2022-11-02T16:38:54.525Z,11.91
2022-11-02T16:41:58.625Z,11.78
2022-11-02T16:45:01.278Z,11.69
2022-11-02T16:48:04.680Z,11.65
2022-11-02T16:51:18.171Z,11.61
2022-11-02T16:54:26.745Z,11.57
2022-11-02T16:57:31.334Z,11.52
2022-11-02T17:00:34.172Z,11.46
2022-11-02T17:03:35.939Z,11.47
2022-11-02T17:06:43.124Z,11.35
2022-11-02T17:09:54.061Z,11.24
2022-11-02T17:12:56.432Z,11.15
2022-11-02T17:16:04.723Z,11.11
2022-11-02T17:19:06.347Z,11.07
2022-11-02T17:22:29.344Z,11.06
2022-11-02T17:25:39.601Z,11.06
2022-11-02T17:28:44.908Z,11.07
2022-11-02T17:31:53.563Z,11.04
2022-11-02T17:34:57.033Z,10.97
2022-11-02T17:37:58.720Z,10.91
2022-11-02T17:41:00.911Z,10.88
2022-11-02T17:44:03.112Z,10.86
2022-11-02T17:47:16.040Z,10.86
2022-11-02T17:50:18.668Z,10.85
2022-11-02T17:53:20.621Z,10.89
2022-11-02T17:56:22.219Z,10.92
2022-11-02T17:59:23.855Z,10.92
2022-11-02T18:02:25.593Z,10.92
2022-11-02T18:05:28.690Z,10.90
2022-11-02T18:08:30.394Z,10.90
2022-11-02T18:11:32.173Z,10.90
2022-11-02T18:14:34.223Z,10.88
2022-11-02T18:17:35.802Z,10.89
2022-11-02T18:20:41.615Z,10.92
2022-11-02T18:23:44.723Z,10.98
2022-11-02T18:26:47.205Z,11.06
2022-11-02T18:29:49.005Z,11.12
2022-11-02T18:32:50.639Z,11.24
2022-11-02T18:35:52.318Z,11.41
2022-11-02T18:38:53.993Z,11.45
2022-11-02T18:41:55.577Z,11.34
2022-11-02T18:44:58.651Z,11.24
2022-11-02T18:48:00.330Z,11.16
2022-11-02T18:51:04.704Z,11.13
2022-11-02T18:54:06.533Z,11.18
2022-11-02T18:57:08.144Z,11.10
2022-11-02T19:00:10.270Z,11.02
2022-11-02T19:03:11.895Z,10.91
2022-11-02T19:06:32.493Z,10.78
2022-11-02T19:09:35.994Z,10.64
2022-11-02T19:12:37.929Z,10.50
2022-11-02T19:15:42.533Z,10.43
2022-11-02T19:18:44.777Z,10.37
2022-11-02T19:21:46.963Z,10.34
2022-11-02T19:24:50.113Z,10.30
2022-11-02T19:27:51.777Z,10.26
2022-11-02T19:30:53.421Z,10.27
2022-11-02T19:33:55.074Z,10.22
2022-11-02T19:36:56.726Z,10.15
2022-11-02T19:39:58.312Z,10.09
2022-11-02T19:43:00.022Z,10.14
2022-11-02T19:46:02.656Z,10.23
2022-11-02T19:49:04.263Z,10.21
2022-11-02T19:52:05.859Z,10.07
2022-11-02T19:55:07.861Z,10.00
2022-11-02T19:58:09.644Z,9.92
2022-11-02T20:01:13.909Z,9.88
2022-11-02T20:04:15.747Z,9.87
2022-11-02T20:07:17.451Z,9.90
2022-11-02T20:10:19.087Z,9.92
2022-11-02T20:13:20.674Z,9.93
2022-11-02T20:16:22.547Z,9.93
2022-11-02T20:19:24.157Z,9.96
2022-11-02T20:22:25.866Z,10.00
2022-11-02T20:25:27.654Z,10.03
2022-11-02T20:28:29.534Z,10.08
2022-11-02T20:31:34.072Z,10.10
2022-11-02T20:34:36.860Z,10.11
2022-11-02T20:37:38.479Z,10.08
2022-11-02T20:40:41.386Z,10.03
2022-11-02T20:43:45.501Z,9.97
2022-11-02T20:46:52.761Z,9.93
2022-11-02T20:49:55.154Z,9.91
2022-11-02T20:52:58.736Z,9.87
2022-11-02T20:56:00.940Z,9.82
2022-11-02T20:59:02.779Z,9.81
2022-11-02T21:02:04.550Z,9.81
2022-11-02T21:05:06.676Z,9.81
2022-11-02T21:08:08.325Z,9.84
2022-11-02T21:11:29.671Z,9.91
2022-11-02T21:14:31.462Z,9.98
2022-11-02T21:17:34.695Z,10.02
2022-11-02T21:20:36.810Z,10.03
2022-11-02T21:23:38.920Z,10.08
2022-11-02T21:26:40.535Z,10.09
2022-11-02T21:29:42.355Z,10.07
2022-11-02T21:32:44.017Z,9.99
2022-11-02T21:35:47.711Z,9.92
2022-11-02T21:38:49.472Z,9.90
2022-11-02T21:41:51.276Z,9.87
2022-11-02T21:44:52.888Z,9.81
2022-11-02T21:47:54.455Z,9.80
2022-11-02T21:51:13.185Z,9.70
2022-11-02T21:54:18.081Z,9.61
2022-11-02T21:57:20.867Z,9.62
2022-11-02T22:00:22.552Z,9.64
2022-11-02T22:03:24.307Z,9.64
2022-11-02T22:06:30.942Z,9.66
2022-11-02T22:09:33.571Z,9.73
2022-11-02T22:12:54.232Z,9.77
2022-11-02T22:15:55.955Z,9.79
2022-11-02T22:18:59.637Z,9.79
2022-11-02T22:22:01.416Z,9.77
2022-11-02T22:25:03.161Z,9.74
2022-11-02T22:28:04.975Z,9.65
2022-11-02T22:31:15.652Z,9.58
2022-11-02T22:34:17.368Z,9.52
2022-11-02T22:37:38.106Z,9.45
2022-11-02T22:40:39.688Z,9.40
2022-11-02T22:43:42.397Z,9.35
2022-11-02T22:46:46.580Z,9.28
2022-11-02T22:49:48.647Z,9.20
2022-11-02T22:52:50.214Z,9.13
2022-11-02T22:56:03.651Z,9.10
2022-11-02T22:59:06.091Z,9.07
2022-11-02T23:02:07.858Z,9.03
2022-11-02T23:05:09.975Z,8.98
2022-11-02T23:08:11.632Z,8.93
2022-11-02T23:11:21.340Z,8.89
2022-11-02T23:14:23.107Z,8.82
2022-11-02T23:17:25.044Z,8.78
2022-11-02T23:20:26.671Z,8.71
2022-11-02T23:23:46.992Z,8.68
2022-11-02T23:26:49.699Z,8.64
2022-11-02T23:30:10.063Z,8.59
2022-11-02T23:33:12.143Z,8.52
2022-11-02T23:36:15.472Z,8.48
2022-11-02T23:39:49.514Z,8.41
2022-11-02T23:42:51.288Z,8.31
2022-11-02T23:45:52.937Z,8.25
2022-11-02T23:48:54.552Z,8.20
2022-11-02T23:52:14.782Z,8.15
2022-11-02T23:55:39.386Z,8.09
2022-11-02T23:58:41.180Z,8.05
